createdAt,value
2019-06-27T00:01:12.086Z,25.60
2019-06-27T00:03:41.250Z,25.50
2019-06-27T00:06:10.506Z,25.50
2019-06-27T00:08:39.749Z,25.40
2019-06-27T00:11:08.979Z,25.40
2019-06-27T00:13:38.124Z,25.40
2019-06-27T00:16:07.314Z,25.40
2019-06-27T00:18:36.557Z,25.50
2019-06-27T00:21:05.793Z,25.60
2019-06-27T00:23:34.939Z,25.60
2019-06-27T00:26:04.183Z,25.60
2019-06-27T00:28:33.343Z,25.50
2019-06-27T00:31:02.598Z,25.50
2019-06-27T00:33:31.815Z,25.40
2019-06-27T00:36:00.987Z,25.40
2019-06-27T00:38:30.211Z,25.40
2019-06-27T00:40:59.464Z,25.50
2019-06-27T00:43:28.784Z,25.60
2019-06-27T00:45:58.045Z,25.70
2019-06-27T00:48:27.209Z,25.70
2019-06-27T00:50:56.370Z,25.60
2019-06-27T00:53:25.690Z,25.70
2019-06-27T00:55:54.931Z,25.70
2019-06-27T00:58:24.079Z,25.70
2019-06-27T01:00:53.313Z,25.70
2019-06-27T01:03:22.471Z,25.60
2019-06-27T01:05:51.726Z,25.50
2019-06-27T01:08:20.973Z,25.40
2019-06-27T01:10:50.166Z,25.40
2019-06-27T01:13:19.311Z,25.30
2019-06-27T01:15:48.570Z,25.20
2019-06-27T01:18:17.827Z,25.10
2019-06-27T01:20:47.052Z,25.10
2019-06-27T01:23:16.315Z,24.90
2019-06-27T01:25:45.550Z,24.80
2019-06-27T01:28:14.787Z,24.80
2019-06-27T01:30:44.014Z,25.00
2019-06-27T01:33:13.199Z,25.10
2019-06-27T01:35:42.434Z,25.30
2019-06-27T01:38:11.668Z,25.40
2019-06-27T01:40:40.909Z,25.40
2019-06-27T01:43:10.184Z,25.40
2019-06-27T01:45:44.697Z,25.40
2019-06-27T01:48:13.867Z,25.40
2019-06-27T01:50:43.014Z,25.40
2019-06-27T01:53:12.274Z,25.40
2019-06-27T01:55:41.505Z,25.40
2019-06-27T01:58:10.709Z,25.40
2019-06-27T02:00:39.944Z,25.30
2019-06-27T02:03:09.192Z,25.20
2019-06-27T02:05:39.611Z,25.10
2019-06-27T02:08:09.531Z,25.10
2019-06-27T02:10:38.694Z,25.10
2019-06-27T02:13:07.928Z,25.10
2019-06-27T02:15:37.075Z,25.10
2019-06-27T02:18:06.326Z,25.00
2019-06-27T02:20:35.570Z,25.00
2019-06-27T02:23:04.798Z,25.00
2019-06-27T02:25:34.042Z,24.90
2019-06-27T02:28:04.618Z,24.90
2019-06-27T02:30:42.270Z,24.90
2019-06-27T02:33:12.224Z,25.00
2019-06-27T02:35:41.539Z,25.00
2019-06-27T02:38:10.853Z,25.00
2019-06-27T02:40:39.998Z,25.10
2019-06-27T02:43:09.265Z,25.10
2019-06-27T02:45:38.651Z,25.20
2019-06-27T02:48:07.908Z,25.30
2019-06-27T02:50:37.062Z,25.40
2019-06-27T02:53:06.437Z,25.40
2019-06-27T02:55:35.737Z,25.40
2019-06-27T02:58:27.727Z,25.40
2019-06-27T03:00:35.947Z,25.50
2019-06-27T03:03:05.251Z,25.40
2019-06-27T03:05:34.472Z,25.40
2019-06-27T03:08:03.706Z,25.30
2019-06-27T03:10:32.871Z,25.30
2019-06-27T03:13:02.138Z,25.30
2019-06-27T03:15:31.325Z,25.30
2019-06-27T03:18:00.632Z,25.30
2019-06-27T03:20:29.830Z,25.30
2019-06-27T03:22:59.091Z,25.30
2019-06-27T03:25:28.318Z,25.30
2019-06-27T03:27:57.560Z,25.30
2019-06-27T03:30:26.815Z,25.20
2019-06-27T03:32:56.028Z,25.10
2019-06-27T03:35:25.481Z,25.10
2019-06-27T03:37:54.826Z,25.10
2019-06-27T03:40:24.074Z,25.10
2019-06-27T03:42:53.302Z,25.20
2019-06-27T03:45:22.464Z,25.20
2019-06-27T03:47:51.694Z,25.30
2019-06-27T03:50:20.924Z,25.30
2019-06-27T03:52:50.139Z,25.30
2019-06-27T03:55:19.370Z,25.30
2019-06-27T03:57:48.503Z,25.20
2019-06-27T04:00:24.383Z,25.20
2019-06-27T04:02:53.611Z,25.30
2019-06-27T04:05:22.798Z,25.30
2019-06-27T04:07:52.035Z,25.30
2019-06-27T04:10:21.258Z,25.30
2019-06-27T04:12:50.470Z,25.30
2019-06-27T04:15:19.720Z,25.30
2019-06-27T04:17:48.862Z,25.30
2019-06-27T04:20:18.213Z,25.30
2019-06-27T04:22:47.440Z,25.30
2019-06-27T04:25:16.618Z,25.30
2019-06-27T04:27:45.844Z,25.30
2019-06-27T04:30:15.279Z,25.20
2019-06-27T04:32:44.437Z,25.20
2019-06-27T04:35:13.696Z,25.20
2019-06-27T04:37:42.975Z,25.20
2019-06-27T04:40:12.338Z,25.20
2019-06-27T04:42:41.578Z,25.10
2019-06-27T04:45:10.930Z,25.10
2019-06-27T04:47:40.219Z,25.00
2019-06-27T04:50:09.384Z,24.90
2019-06-27T04:52:38.563Z,24.90
2019-06-27T04:55:07.973Z,24.90
2019-06-27T04:57:37.187Z,24.90
2019-06-27T05:00:07.058Z,24.90
2019-06-27T05:02:36.190Z,24.90
2019-06-27T05:05:05.673Z,24.90
2019-06-27T05:07:34.890Z,24.90
2019-06-27T05:10:04.797Z,25.00
2019-06-27T05:12:34.210Z,25.00
2019-06-27T05:15:03.481Z,24.90
2019-06-27T05:17:32.643Z,24.90
2019-06-27T05:20:03.254Z,24.80
2019-06-27T05:22:32.674Z,24.80
2019-06-27T05:25:01.990Z,24.90
2019-06-27T05:27:31.219Z,24.90
2019-06-27T05:30:09.591Z,24.80
2019-06-27T05:32:31.365Z,24.70
2019-06-27T05:35:00.605Z,24.70
2019-06-27T05:37:29.831Z,24.70
2019-06-27T05:39:59.099Z,24.60
2019-06-27T05:42:28.337Z,24.60
2019-06-27T05:44:57.516Z,24.50
2019-06-27T05:47:26.785Z,24.50
2019-06-27T05:49:56.006Z,24.50
2019-06-27T05:52:25.190Z,24.50
2019-06-27T05:54:54.441Z,24.50
2019-06-27T05:57:23.703Z,24.70
2019-06-27T05:59:52.936Z,24.80
2019-06-27T06:02:22.163Z,24.80
2019-06-27T06:04:51.419Z,24.90
2019-06-27T06:07:20.588Z,25.00
2019-06-27T06:09:51.991Z,25.10
2019-06-27T06:12:21.229Z,25.10
2019-06-27T06:14:50.482Z,25.10
2019-06-27T06:17:19.725Z,25.20
2019-06-27T06:19:48.952Z,25.30
2019-06-27T06:22:18.195Z,25.20
2019-06-27T06:24:47.354Z,25.30
2019-06-27T06:27:16.534Z,25.30
2019-06-27T06:29:45.785Z,25.40
2019-06-27T06:32:15.034Z,25.30
2019-06-27T06:34:44.226Z,25.30
2019-06-27T06:37:13.474Z,25.30
2019-06-27T06:39:42.705Z,25.10
2019-06-27T06:42:11.954Z,25.10
2019-06-27T06:44:41.098Z,25.00
2019-06-27T06:47:10.397Z,25.10
2019-06-27T06:49:39.580Z,25.00
2019-06-27T06:52:08.738Z,25.10
2019-06-27T06:54:37.990Z,25.10
2019-06-27T06:57:07.248Z,25.20
2019-06-27T06:59:36.488Z,25.30
2019-06-27T07:02:05.707Z,25.10
2019-06-27T07:04:34.902Z,25.10
2019-06-27T07:07:13.147Z,25.00
2019-06-27T07:09:41.169Z,24.90
2019-06-27T07:12:10.418Z,24.90
2019-06-27T07:14:39.571Z,24.90
2019-06-27T07:17:08.825Z,25.10
2019-06-27T07:19:38.053Z,25.10
2019-06-27T07:22:07.305Z,25.20
2019-06-27T07:24:36.450Z,25.30
2019-06-27T07:27:05.626Z,25.40
2019-06-27T07:29:34.935Z,25.40
2019-06-27T07:32:04.233Z,25.50
2019-06-27T07:34:33.498Z,25.60
2019-06-27T07:37:02.767Z,25.70
2019-06-27T07:39:31.983Z,25.70
2019-06-27T07:42:01.238Z,25.70
2019-06-27T07:44:30.423Z,25.80
2019-06-27T07:46:59.691Z,25.80
2019-06-27T07:49:28.918Z,25.80
2019-06-27T07:51:58.140Z,25.70
2019-06-27T07:54:27.396Z,25.80
2019-06-27T07:56:56.607Z,25.80
2019-06-27T07:59:25.777Z,25.90
2019-06-27T08:01:54.928Z,25.90
2019-06-27T08:04:24.086Z,25.90
2019-06-27T08:06:53.282Z,25.90
2019-06-27T08:09:22.490Z,25.80
2019-06-27T08:11:51.790Z,25.80
2019-06-27T08:14:21.030Z,25.70
2019-06-27T08:16:50.300Z,25.70
2019-06-27T08:19:19.560Z,25.70
2019-06-27T08:21:48.784Z,25.80
2019-06-27T08:24:18.028Z,25.80
2019-06-27T08:26:47.244Z,25.90
2019-06-27T08:29:16.481Z,26.00
2019-06-27T08:31:51.372Z,26.10
2019-06-27T08:34:16.713Z,26.10
2019-06-27T08:36:45.957Z,26.10
2019-06-27T08:39:15.243Z,26.20
2019-06-27T08:41:44.489Z,26.20
2019-06-27T08:44:13.711Z,26.20
2019-06-27T08:46:42.955Z,26.10
2019-06-27T08:49:12.185Z,26.20
2019-06-27T08:51:41.435Z,26.20
2019-06-27T08:54:10.679Z,26.30
2019-06-27T08:56:39.933Z,26.30
2019-06-27T08:59:09.095Z,26.40
2019-06-27T09:01:38.357Z,26.50
2019-06-27T09:04:07.512Z,26.50
2019-06-27T09:06:36.766Z,26.50
2019-06-27T09:09:06.574Z,26.50
2019-06-27T09:11:38.212Z,26.60
2019-06-27T09:14:06.810Z,26.70
2019-06-27T09:16:36.043Z,26.80
2019-06-27T09:19:05.301Z,26.90
2019-06-27T09:21:34.551Z,27.00
2019-06-27T09:24:03.788Z,27.00
2019-06-27T09:26:33.033Z,27.00
2019-06-27T09:29:02.288Z,26.90
2019-06-27T09:31:31.517Z,27.00
2019-06-27T09:34:00.843Z,27.00
2019-06-27T09:36:29.974Z,27.00
2019-06-27T09:38:59.254Z,27.10
2019-06-27T09:41:28.637Z,27.00
2019-06-27T09:43:57.927Z,27.00
2019-06-27T09:46:27.102Z,27.20
2019-06-27T09:48:56.289Z,27.20
2019-06-27T09:51:25.540Z,27.30
2019-06-27T09:53:54.798Z,27.30
2019-06-27T09:56:24.107Z,27.40
2019-06-27T09:58:53.371Z,27.40
2019-06-27T10:01:22.613Z,27.50
2019-06-27T10:03:51.802Z,27.50
2019-06-27T10:06:21.025Z,27.50
2019-06-27T10:08:50.331Z,27.60
2019-06-27T10:11:19.534Z,27.60
2019-06-27T10:13:48.786Z,27.50
2019-06-27T10:16:17.999Z,27.60
2019-06-27T10:18:47.179Z,27.60
2019-06-27T10:21:16.326Z,27.60
2019-06-27T10:23:45.661Z,27.60
2019-06-27T10:26:14.903Z,27.70
2019-06-27T10:28:44.174Z,27.70
2019-06-27T10:31:13.309Z,27.70
2019-06-27T10:33:42.554Z,27.80
2019-06-27T10:36:11.834Z,27.80
2019-06-27T10:38:41.096Z,27.80
2019-06-27T10:41:10.271Z,27.90
2019-06-27T10:43:39.570Z,28.00
2019-06-27T10:46:08.813Z,28.00
2019-06-27T10:48:38.094Z,28.00
2019-06-27T10:51:12.553Z,28.10
2019-06-27T10:53:41.721Z,28.10
2019-06-27T10:56:10.984Z,28.10
2019-06-27T10:58:40.230Z,28.20
2019-06-27T11:01:09.479Z,28.30
2019-06-27T11:03:38.874Z,28.30
2019-06-27T11:06:08.094Z,28.30
2019-06-27T11:08:37.267Z,28.30
2019-06-27T11:11:06.483Z,28.30
2019-06-27T11:13:35.747Z,28.50
2019-06-27T11:16:05.021Z,28.60
2019-06-27T11:18:34.277Z,28.60
2019-06-27T11:21:03.609Z,28.70
2019-06-27T11:23:32.918Z,28.80
2019-06-27T11:26:02.150Z,28.90
2019-06-27T11:28:31.352Z,28.90
2019-06-27T11:31:00.628Z,28.90
2019-06-27T11:33:33.082Z,28.90
2019-06-27T11:36:00.884Z,28.90
2019-06-27T11:38:30.086Z,29.00
2019-06-27T11:40:59.495Z,28.90
2019-06-27T11:43:28.778Z,28.90
2019-06-27T11:45:58.021Z,28.80
2019-06-27T11:48:27.329Z,28.90
2019-06-27T11:50:56.566Z,29.00
2019-06-27T11:53:25.848Z,29.00
2019-06-27T11:55:56.458Z,28.90
2019-06-27T11:58:25.788Z,29.10
2019-06-27T12:00:55.058Z,29.10
2019-06-27T12:03:24.352Z,29.20
2019-06-27T12:05:53.621Z,29.30
2019-06-27T12:08:22.900Z,29.30
2019-06-27T12:10:52.196Z,29.30
2019-06-27T12:13:21.484Z,29.40
2019-06-27T12:15:51.769Z,29.40
2019-06-27T12:18:21.180Z,29.40
2019-06-27T12:20:50.352Z,29.50
2019-06-27T12:23:19.569Z,29.60
2019-06-27T12:25:48.826Z,29.60
2019-06-27T12:28:18.001Z,29.60
2019-06-27T12:30:47.178Z,29.60
2019-06-27T12:33:16.433Z,29.60
2019-06-27T12:35:45.830Z,29.60
2019-06-27T12:38:15.072Z,29.60
2019-06-27T12:40:44.255Z,29.70
2019-06-27T12:43:14.661Z,29.80
2019-06-27T12:45:44.053Z,29.80
2019-06-27T12:48:16.988Z,29.70
2019-06-27T12:50:46.571Z,29.80
2019-06-27T12:53:16.635Z,29.90
2019-06-27T12:55:45.938Z,29.90
2019-06-27T12:58:15.173Z,30.00
2019-06-27T13:00:44.418Z,30.00
2019-06-27T13:03:13.658Z,30.00
2019-06-27T13:05:42.953Z,30.00
2019-06-27T13:08:12.214Z,30.00
2019-06-27T13:10:41.480Z,30.00
2019-06-27T13:13:10.758Z,30.00
2019-06-27T13:15:40.033Z,30.00
2019-06-27T13:18:09.253Z,30.00
2019-06-27T13:20:38.532Z,29.90
2019-06-27T13:23:07.701Z,29.90
2019-06-27T13:25:36.874Z,29.80
2019-06-27T13:28:06.124Z,30.00
2019-06-27T13:30:35.339Z,30.10
2019-06-27T13:33:04.607Z,30.10
2019-06-27T13:35:33.848Z,30.10
2019-06-27T13:38:03.088Z,30.10
2019-06-27T13:40:32.267Z,30.10
2019-06-27T13:43:01.535Z,30.10
2019-06-27T13:45:30.850Z,30.10
2019-06-27T13:48:00.085Z,30.10
2019-06-27T13:50:29.377Z,30.10
2019-06-27T13:52:58.563Z,30.20
2019-06-27T13:55:27.806Z,30.20
2019-06-27T13:57:57.724Z,30.20
2019-06-27T14:00:41.060Z,30.20
2019-06-27T14:03:10.339Z,30.20
2019-06-27T14:05:39.599Z,30.20
2019-06-27T14:08:08.805Z,30.20
2019-06-27T14:10:38.073Z,30.20
2019-06-27T14:13:07.329Z,30.30
2019-06-27T14:15:36.597Z,30.30
2019-06-27T14:18:05.852Z,30.30
2019-06-27T14:20:35.164Z,30.30
2019-06-27T14:23:04.399Z,30.40
2019-06-27T14:25:33.665Z,30.40
2019-06-27T14:28:02.987Z,30.40
2019-06-27T14:30:32.300Z,30.30
2019-06-27T14:33:01.623Z,30.40
2019-06-27T14:35:31.000Z,30.40
2019-06-27T14:38:00.219Z,30.40
2019-06-27T14:40:29.522Z,30.40
2019-06-27T14:42:58.813Z,30.40
2019-06-27T14:45:28.026Z,30.50
2019-06-27T14:47:57.317Z,30.60
2019-06-27T14:50:26.727Z,30.60
2019-06-27T14:52:56.077Z,30.60
2019-06-27T14:55:25.382Z,30.60
2019-06-27T14:57:54.717Z,30.60
2019-06-27T15:00:25.378Z,30.70
2019-06-27T15:02:54.805Z,30.70
2019-06-27T15:05:32.610Z,30.60
2019-06-27T15:07:55.165Z,30.50
2019-06-27T15:10:24.441Z,30.70
2019-06-27T15:12:57.369Z,30.60
2019-06-27T15:15:24.654Z,30.60
2019-06-27T15:17:53.923Z,30.50
2019-06-27T15:20:23.241Z,30.50
2019-06-27T15:22:52.485Z,30.50
2019-06-27T15:25:21.845Z,30.50
2019-06-27T15:27:51.088Z,30.50
2019-06-27T15:30:21.383Z,30.40
2019-06-27T15:32:50.629Z,30.40
2019-06-27T15:35:19.998Z,30.20
2019-06-27T15:37:49.401Z,30.20
2019-06-27T15:40:18.862Z,30.10
2019-06-27T15:42:48.119Z,30.10
2019-06-27T15:45:17.299Z,30.30
2019-06-27T15:47:46.443Z,30.40
2019-06-27T15:50:16.258Z,30.40
2019-06-27T15:52:45.488Z,30.50
2019-06-27T15:55:15.360Z,30.50
2019-06-27T15:57:44.635Z,30.50
2019-06-27T16:00:14.311Z,30.50
2019-06-27T16:02:43.554Z,30.50
2019-06-27T16:05:14.702Z,30.30
2019-06-27T16:08:03.510Z,30.30
2019-06-27T16:10:33.230Z,30.20
2019-06-27T16:13:03.087Z,30.30
2019-06-27T16:15:32.819Z,30.30
2019-06-27T16:18:02.756Z,30.30
2019-06-27T16:20:32.381Z,30.30
2019-06-27T16:23:01.967Z,30.20
2019-06-27T16:25:31.612Z,30.20
2019-06-27T16:28:01.281Z,30.30
2019-06-27T16:30:31.008Z,30.40
2019-06-27T16:33:00.656Z,30.40
2019-06-27T16:35:30.269Z,30.40
2019-06-27T16:37:59.925Z,30.50
2019-06-27T16:40:29.534Z,30.40
2019-06-27T16:42:59.106Z,30.40
2019-06-27T16:45:28.858Z,30.40
2019-06-27T16:47:58.460Z,30.30
2019-06-27T16:50:28.058Z,30.30
2019-06-27T16:52:57.689Z,30.20
2019-06-27T16:55:27.354Z,30.20
2019-06-27T16:57:56.982Z,30.10
2019-06-27T17:00:26.911Z,30.10
2019-06-27T17:02:56.597Z,30.10
2019-06-27T17:05:26.223Z,30.00
2019-06-27T17:07:55.907Z,30.00
2019-06-27T17:10:25.482Z,29.90
2019-06-27T17:12:55.145Z,29.90
2019-06-27T17:15:24.953Z,29.80
2019-06-27T17:17:54.624Z,29.80
2019-06-27T17:20:24.276Z,29.60
2019-06-27T17:22:53.929Z,29.60
2019-06-27T17:25:23.570Z,29.50
2019-06-27T17:27:53.262Z,29.50
2019-06-27T17:30:23.045Z,29.40
2019-06-27T17:32:52.738Z,29.40
2019-06-27T17:35:22.378Z,29.40
2019-06-27T17:37:51.958Z,29.40
2019-06-27T17:40:22.697Z,29.40
2019-06-27T17:42:52.384Z,29.40
2019-06-27T17:45:22.020Z,29.40
2019-06-27T17:47:51.748Z,29.30
2019-06-27T17:50:21.398Z,29.30
2019-06-27T17:52:51.166Z,29.10
2019-06-27T17:55:20.993Z,29.00
2019-06-27T17:57:50.678Z,28.80
2019-06-27T18:00:20.275Z,28.70
2019-06-27T18:02:49.906Z,28.70
2019-06-27T18:05:19.572Z,28.70
2019-06-27T18:07:49.991Z,28.80
2019-06-27T18:10:20.544Z,28.80
2019-06-27T18:12:50.213Z,28.70
2019-06-27T18:15:20.213Z,28.60
2019-06-27T18:17:49.848Z,28.50
2019-06-27T18:20:19.515Z,28.50
2019-06-27T18:22:49.104Z,28.50
2019-06-27T18:25:18.727Z,28.40
2019-06-27T18:27:48.432Z,28.20
2019-06-27T18:30:18.268Z,28.20
2019-06-27T18:32:47.983Z,28.10
2019-06-27T18:35:17.792Z,28.00
2019-06-27T18:37:48.836Z,27.90
2019-06-27T18:40:20.628Z,27.90
2019-06-27T18:42:50.639Z,27.90
2019-06-27T18:45:20.498Z,27.80
2019-06-27T18:47:50.245Z,27.70
2019-06-27T18:50:20.052Z,27.60
2019-06-27T18:52:49.707Z,27.60
2019-06-27T18:55:24.063Z,27.40
2019-06-27T18:57:53.777Z,27.40
2019-06-27T19:00:23.410Z,27.30
2019-06-27T19:02:55.330Z,27.10
2019-06-27T19:05:25.076Z,27.00
2019-06-27T19:10:31.303Z,26.80
2019-06-27T19:13:00.882Z,26.80
2019-06-27T19:15:30.453Z,26.80
2019-06-27T19:18:00.137Z,26.70
2019-06-27T19:20:35.452Z,26.70
2019-06-27T19:23:24.075Z,26.60
2019-06-27T19:25:55.935Z,26.60
2019-06-27T19:28:25.558Z,26.70
2019-06-27T19:30:55.266Z,26.60
2019-06-27T19:33:24.912Z,26.60
2019-06-27T19:35:54.574Z,26.60
2019-06-27T19:38:24.899Z,26.60
2019-06-27T19:40:57.873Z,26.60
2019-06-27T19:43:29.766Z,26.70
2019-06-27T19:45:59.409Z,26.70
2019-06-27T19:48:29.085Z,26.60
2019-06-27T19:50:58.689Z,26.60
2019-06-27T19:53:28.268Z,26.50
2019-06-27T19:55:58.505Z,26.50
2019-06-27T19:58:28.301Z,26.40
2019-06-27T20:00:57.937Z,26.30
2019-06-27T20:03:27.558Z,26.20
2019-06-27T20:05:58.413Z,26.20
2019-06-27T20:08:28.096Z,26.00
2019-06-27T20:10:57.732Z,26.00
2019-06-27T20:13:27.673Z,25.90
2019-06-27T20:15:57.271Z,25.80
2019-06-27T20:18:26.956Z,25.70
2019-06-27T20:20:56.694Z,25.60
2019-06-27T20:23:26.491Z,25.60
2019-06-27T20:25:56.065Z,25.50
2019-06-27T20:28:25.812Z,25.40
2019-06-27T20:30:55.527Z,25.40
2019-06-27T20:33:25.300Z,25.30
2019-06-27T20:35:54.951Z,25.30
2019-06-27T20:38:34.488Z,25.20
2019-06-27T20:40:55.905Z,25.20
2019-06-27T20:43:25.515Z,25.10
2019-06-27T20:45:55.196Z,25.10
2019-06-27T20:48:24.851Z,25.10
2019-06-27T20:50:54.489Z,25.00
2019-06-27T20:53:24.068Z,24.90
2019-06-27T20:55:53.755Z,24.90
2019-06-27T20:58:23.325Z,24.80
2019-06-27T21:00:52.914Z,24.70
2019-06-27T21:03:22.490Z,24.60
2019-06-27T21:05:52.150Z,24.50
2019-06-27T21:08:21.833Z,24.40
2019-06-27T21:10:51.496Z,24.20
2019-06-27T21:13:21.096Z,24.10
2019-06-27T21:15:50.815Z,24.00
2019-06-27T21:18:20.409Z,23.90
2019-06-27T21:20:49.962Z,23.80
2019-06-27T21:23:19.539Z,23.70
2019-06-27T21:25:49.108Z,23.60
2019-06-27T21:28:18.724Z,23.50
2019-06-27T21:30:48.317Z,23.50
2019-06-27T21:33:18.007Z,23.40
2019-06-27T21:35:47.684Z,23.40
2019-06-27T21:38:17.266Z,23.40
2019-06-27T21:40:47.103Z,23.40
2019-06-27T21:43:16.835Z,23.40
2019-06-27T21:45:46.484Z,23.30
2019-06-27T21:48:16.170Z,23.30
2019-06-27T21:50:45.717Z,23.20
2019-06-27T21:53:15.386Z,23.10
2019-06-27T21:55:45.009Z,23.10
2019-06-27T21:58:14.625Z,23.00
2019-06-27T22:00:44.669Z,23.00
2019-06-27T22:03:14.408Z,22.90
2019-06-27T22:05:44.049Z,22.90
2019-06-27T22:08:13.643Z,22.80
2019-06-27T22:10:43.250Z,22.80
2019-06-27T22:13:12.917Z,22.70
2019-06-27T22:15:42.680Z,22.70
2019-06-27T22:18:12.319Z,22.70
2019-06-27T22:20:41.976Z,22.60
2019-06-27T22:23:11.537Z,22.60
2019-06-27T22:25:41.292Z,22.50
2019-06-27T22:28:10.960Z,22.30
2019-06-27T22:30:40.619Z,22.30
2019-06-27T22:33:10.262Z,22.30
2019-06-27T22:35:39.902Z,22.30
2019-06-27T22:38:27.022Z,22.30
2019-06-27T22:41:14.084Z,22.30
2019-06-27T22:44:01.266Z,22.20
2019-06-27T22:46:48.611Z,22.20
2019-06-27T22:49:17.533Z,22.10
2019-06-27T22:52:09.091Z,22.00
2019-06-27T22:54:40.504Z,21.90
2019-06-27T22:57:10.135Z,21.90
2019-06-27T22:59:39.798Z,21.90
2019-06-27T23:02:09.331Z,21.80
2019-06-27T23:04:38.983Z,21.80
2019-06-27T23:07:08.642Z,21.80
2019-06-27T23:09:38.240Z,21.80
2019-06-27T23:12:07.875Z,21.70
2019-06-27T23:14:37.432Z,21.60
2019-06-27T23:17:07.033Z,21.60
2019-06-27T23:19:36.556Z,21.50
2019-06-27T23:22:06.621Z,21.50
2019-06-27T23:24:36.235Z,21.50
2019-06-27T23:27:05.853Z,21.40
2019-06-27T23:29:35.483Z,21.30
2019-06-27T23:32:05.113Z,21.30
2019-06-27T23:34:34.771Z,21.30
2019-06-27T23:37:04.459Z,21.30
2019-06-27T23:39:34.118Z,21.30
2019-06-27T23:42:03.778Z,21.20
2019-06-27T23:44:33.442Z,21.20
2019-06-27T23:47:03.114Z,21.10
2019-06-27T23:49:32.677Z,21.10
2019-06-27T23:52:02.297Z,21.00
2019-06-27T23:54:31.942Z,21.00
2019-06-27T23:57:01.602Z,21.10
2019-06-27T23:59:31.194Z,21.10
